sensor_id;sensor_type;location;lat;lon;timestamp;pressure;altitude;pressure_sealevel;temperature;humidity
17950;BME280;9100;48.700;9.316;2023-04-08T00:00:15;97971.7;;;10.17;100
17950;BME280;9100;48.700;9.316;2023-04-08T00:01:14;97969.1;;;10.17;100
17950;BME280;9100;48.700;9.316;2023-04-08T00:02:14;97974.2;;;10.17;100
17950;BME280;9100;48.700;9.316;2023-04-08T00:02:48;97972.7;;;10.16;100
17950;BME280;9100;48.700;9.316;2023-04-08T00:03:15;97965.59999999999;;;10.18;100
17950;BME280;9100;48.700;9.316;2023-04-08T00:04:14;97968.3;;;10.16;100
17950;BME280;9100;48.700;9.316;2023-04-08T00:05:14;97969.9;;;10.17;100
17950;BME280;9100;48.700;9.316;2023-04-08T00:06:14;97973.29999999999;;;10.18;100
17950;BME280;9100;48.700;9.316;2023-04-08T00:07:14;97965.59999999999;;;10.18;100
17950;BME280;9100;48.700;9.316;2023-04-08T00:07:48;97964.8;;;10.17;100
17950;BME280;9100;48.700;9.316;2023-04-08T00:08:15;97972.5;;;10.17;100
17950;BME280;9100;48.700;9.316;2023-04-08T00:09:15;97975;;;10.17;100
17950;BME280;9100;48.700;9.316;2023-04-08T00:10:14;97967.6;;;10.16;100
17950;BME280;9100;48.700;9.316;2023-04-08T00:11:14;97973.6;;;10.15;100
17950;BME280;9100;48.700;9.316;2023-04-08T00:12:15;97979.5;;;10.15;100
17950;BME280;9100;48.700;9.316;2023-04-08T00:12:48;97980.5;;;10.14;100
17950;BME280;9100;48.700;9.316;2023-04-08T00:13:14;97982.9;;;10.16;100
17950;BME280;9100;48.700;9.316;2023-04-08T00:14:14;97973.6;;;10.15;100
17950;BME280;9100;48.700;9.316;2023-04-08T00:15:15;97975.40000000001;;;10.14;100
17950;BME280;9100;48.700;9.316;2023-04-08T00:16:14;97977.09999999999;;;10.14;100
17950;BME280;9100;48.700;9.316;2023-04-08T00:17:14;97978.09999999999;;;10.13;100
17950;BME280;9100;48.700;9.316;2023-04-08T00:17:48;97976.5;;;10.12;100
17950;BME280;9100;48.700;9.316;2023-04-08T00:18:15;97979.8;;;10.12;100
17950;BME280;9100;48.700;9.316;2023-04-08T00:19:14;97972.29999999999;;;10.11;100
17950;BME280;9100;48.700;9.316;2023-04-08T00:20:14;97980.8;;;10.11;100
17950;BME280;9100;48.700;9.316;2023-04-08T00:21:14;97972.5;;;10.09;100
17950;BME280;9100;48.700;9.316;2023-04-08T00:22:15;97976;;;10.08;100
17950;BME280;9100;48.700;9.316;2023-04-08T00:22:49;97970.1;;;10.08;100
17950;BME280;9100;48.700;9.316;2023-04-08T00:23:14;97972.7;;;10.08;100
17950;BME280;9100;48.700;9.316;2023-04-08T00:24:14;97970.9;;;10.08;100
17950;BME280;9100;48.700;9.316;2023-04-08T00:25:14;97970.1;;;10.08;100
17950;BME280;9100;48.700;9.316;2023-04-08T00:26:14;97964.20000000001;;;10.07;100
17950;BME280;9100;48.700;9.316;2023-04-08T00:27:14;97971.1;;;10.07;100
17950;BME280;9100;48.700;9.316;2023-04-08T00:27:48;97969.5;;;10.06;100
17950;BME280;9100;48.700;9.316;2023-04-08T00:28:14;97966;;;10.07;100
17950;BME280;9100;48.700;9.316;2023-04-08T00:29:14;97966.9;;;10.06;100
17950;BME280;9100;48.700;9.316;2023-04-08T00:30:14;97967.7;;;10.06;100
17950;BME280;9100;48.700;9.316;2023-04-08T00:31:14;97966.9;;;10.06;100
17950;BME280;9100;48.700;9.316;2023-04-08T00:32:15;97967.9;;;10.05;100
17950;BME280;9100;48.700;9.316;2023-04-08T00:32:49;97967.9;;;10.05;100
17950;BME280;9100;48.700;9.316;2023-04-08T00:33:14;97968.1;;;10.03;100
17950;BME280;9100;48.700;9.316;2023-04-08T00:34:14;97973.2;;;10.03;100
17950;BME280;9100;48.700;9.316;2023-04-08T00:35:15;97969.8;;;10.03;100
17950;BME280;9100;48.700;9.316;2023-04-08T00:36:14;97969;;;10.02;100
17950;BME280;9100;48.700;9.316;2023-04-08T00:37:14;97968.2;;;10.02;100
17950;BME280;9100;48.700;9.316;2023-04-08T00:37:49;97971.6;;;10.02;100
17950;BME280;9100;48.700;9.316;2023-04-08T00:38:14;97965.7;;;10.02;100
17950;BME280;9100;48.700;9.316;2023-04-08T00:39:14;97968.2;;;10.02;100
17950;BME280;9100;48.700;9.316;2023-04-08T00:40:15;97975.09999999999;;;10.01;100
17950;BME280;9100;48.700;9.316;2023-04-08T00:41:14;97980.4;;;10;100
17950;BME280;9100;48.700;9.316;2023-04-08T00:42:15;97978;;;9.98;100
17950;BME280;9100;48.700;9.316;2023-04-08T00:42:49;97971.40000000001;;;9.96;100
17950;BME280;9100;48.700;9.316;2023-04-08T00:43:14;97975.59999999999;;;9.97;100
17950;BME280;9100;48.700;9.316;2023-04-08T00:44:14;97976.59999999999;;;9.96;100
17950;BME280;9100;48.700;9.316;2023-04-08T00:45:14;97974.2;;;9.94;100
17950;BME280;9100;48.700;9.316;2023-04-08T00:46:14;97982;;;9.93;100
17950;BME280;9100;48.700;9.316;2023-04-08T00:47:14;97975.3;;;9.92;100
17950;BME280;9100;48.700;9.316;2023-04-08T00:47:49;97981.5;;;9.89;100
17950;BME280;9100;48.700;9.316;2023-04-08T00:48:14;97978;;;9.9;100
17950;BME280;9100;48.700;9.316;2023-04-08T00:49:15;97985.7;;;9.9;100
17950;BME280;9100;48.700;9.316;2023-04-08T00:50:14;97983;;;9.92;100
17950;BME280;9100;48.700;9.316;2023-04-08T00:51:15;97980.4;;;9.92;100
17950;BME280;9100;48.700;9.316;2023-04-08T00:52:15;97977.20000000001;;;9.9;100
17950;BME280;9100;48.700;9.316;2023-04-08T00:52:48;97983.3;;;9.89;100
17950;BME280;9100;48.700;9.316;2023-04-08T00:53:14;97982.3;;;9.9;100
17950;BME280;9100;48.700;9.316;2023-04-08T00:54:14;97982.3;;;9.9;100
17950;BME280;9100;48.700;9.316;2023-04-08T00:55:14;97987.40000000001;;;9.9;100
17950;BME280;9100;48.700;9.316;2023-04-08T00:56:15;97990;;;9.9;100
17950;BME280;9100;48.700;9.316;2023-04-08T00:57:14;97991.7;;;9.89;100
17950;BME280;9100;48.700;9.316;2023-04-08T00:57:49;97991.7;;;9.89;100
17950;BME280;9100;48.700;9.316;2023-04-08T00:58:15;97985;;;9.88;100
17950;BME280;9100;48.700;9.316;2023-04-08T00:59:16;97979.1;;;9.88;100
17950;BME280;9100;48.700;9.316;2023-04-08T01:00:14;97990.20000000001;;;9.88;100
17950;BME280;9100;48.700;9.316;2023-04-08T01:01:17;97990.3;;;9.87;100
17950;BME280;9100;48.700;9.316;2023-04-08T01:02:20;97980.1;;;9.87;100
17950;BME280;9100;48.700;9.316;2023-04-08T01:02:50;97975.2;;;9.85;100
17950;BME280;9100;48.700;9.316;2023-04-08T01:03:15;97982.6;;;9.87;100
17950;BME280;9100;48.700;9.316;2023-04-08T01:04:16;97979.1;;;9.88;100
17950;BME280;9100;48.700;9.316;2023-04-08T01:05:19;97979.9;;;9.88;100
17950;BME280;9100;48.700;9.316;2023-04-08T01:06:16;97985.79999999999;;;9.89;100
17950;BME280;9100;48.700;9.316;2023-04-08T01:07:16;97982.8;;;9.85;100
17950;BME280;9100;48.700;9.316;2023-04-08T01:07:49;97982;;;9.85;100
17950;BME280;9100;48.700;9.316;2023-04-08T01:08:15;97980.3;;;9.85;100
17950;BME280;9100;48.700;9.316;2023-04-08T01:09:15;97975.3;;;9.84;100
17950;BME280;9100;48.700;9.316;2023-04-08T01:10:16;97981.1;;;9.86;100
17950;BME280;9100;48.700;9.316;2023-04-08T01:11:15;97976.8;;;9.86;100
17950;BME280;9100;48.700;9.316;2023-04-08T01:12:16;97987.8;;;9.87;100
17950;BME280;9100;48.700;9.316;2023-04-08T01:12:49;97984.6;;;9.85;100
17950;BME280;9100;48.700;9.316;2023-04-08T01:13:15;97977.5;;;9.87;100
17950;BME280;9100;48.700;9.316;2023-04-08T01:14:18;97971.7;;;9.86;100
17950;BME280;9100;48.700;9.316;2023-04-08T01:15:15;97978.5;;;9.86;100
17950;BME280;9100;48.700;9.316;2023-04-08T01:16:14;97982;;;9.85;100
17950;BME280;9100;48.700;9.316;2023-04-08T01:17:14;97979.5;;;9.85;100
17950;BME280;9100;48.700;9.316;2023-04-08T01:17:49;97983;;;9.84;100
17950;BME280;9100;48.700;9.316;2023-04-08T01:18:14;97988.9;;;9.84;100
17950;BME280;9100;48.700;9.316;2023-04-08T01:19:16;97982.2;;;9.83;100
17950;BME280;9100;48.700;9.316;2023-04-08T01:20:15;97987.3;;;9.83;100
17950;BME280;9100;48.700;9.316;2023-04-08T01:21:14;97982.4;;;9.82;100
17950;BME280;9100;48.700;9.316;2023-04-08T01:22:21;97988.4;;;9.81;100
17950;BME280;9100;48.700;9.316;2023-04-08T01:22:53;97983.3;;;9.81;100
17950;BME280;9100;48.700;9.316;2023-04-08T01:23:17;97986.8;;;9.8;100
17950;BME280;9100;48.700;9.316;2023-04-08T01:24:15;97984.3;;;9.8;100
17950;BME280;9100;48.700;9.316;2023-04-08T01:25:15;97979.2;;;9.8;100
17950;BME280;9100;48.700;9.316;2023-04-08T01:26:19;97986;;;9.79;100
17950;BME280;9100;48.700;9.316;2023-04-08T01:27:14;97979.3;;;9.78;100
17950;BME280;9100;48.700;9.316;2023-04-08T01:27:49;97988;;;9.77;100
17950;BME280;9100;48.700;9.316;2023-04-08T01:28:15;97982.8;;;9.77;100
17950;BME280;9100;48.700;9.316;2023-04-08T01:29:15;97987.2;;;9.77;100
17950;BME280;9100;48.700;9.316;2023-04-08T01:30:16;97981.3;;;9.76;100
17950;BME280;9100;48.700;9.316;2023-04-08T01:31:14;97990.7;;;9.75;100
17950;BME280;9100;48.700;9.316;2023-04-08T01:32:14;97988.09999999999;;;9.75;100
17950;BME280;9100;48.700;9.316;2023-04-08T01:32:49;97939.4;;;9.46;100
17950;BME280;9100;48.700;9.316;2023-04-08T01:33:15;97981.6;;;9.73;100
17950;BME280;9100;48.700;9.316;2023-04-08T01:34:14;97985.90000000001;;;9.72;100
17950;BME280;9100;48.700;9.316;2023-04-08T01:35:15;97989.4;;;9.71;100
17950;BME280;9100;48.700;9.316;2023-04-08T01:36:14;97989.4;;;9.71;100
17950;BME280;9100;48.700;9.316;2023-04-08T01:37:14;97982.1;;;9.68;100
17950;BME280;9100;48.700;9.316;2023-04-08T01:37:49;97983.1;;;9.67;100
17950;BME280;9100;48.700;9.316;2023-04-08T01:38:15;97982.9;;;9.69;100
17950;BME280;9100;48.700;9.316;2023-04-08T01:39:14;97928;;;9.34;100
17950;BME280;9100;48.700;9.316;2023-04-08T01:40:14;97979.5;;;9.68;100
17950;BME280;9100;48.700;9.316;2023-04-08T01:41:15;97991.3;;;9.69;100
17950;BME280;9100;48.700;9.316;2023-04-08T01:42:14;97986.2;;;9.69;100
17950;BME280;9100;48.700;9.316;2023-04-08T01:42:49;97978.59999999999;;;9.69;100
17950;BME280;9100;48.700;9.316;2023-04-08T01:43:15;97976.8;;;9.7;100
17950;BME280;9100;48.700;9.316;2023-04-08T01:44:14;97986.2;;;9.69;100
17950;BME280;9100;48.700;9.316;2023-04-08T01:45:14;97982.9;;;9.69;100
17950;BME280;9100;48.700;9.316;2023-04-08T01:46:14;97988;;;9.69;100
17950;BME280;9100;48.700;9.316;2023-04-08T01:47:14;97983.1;;;9.67;100
17950;BME280;9100;48.700;9.316;2023-04-08T01:47:49;97976.3;;;9.66;100
17950;BME280;9100;48.700;9.316;2023-04-08T01:48:15;97983.1;;;9.67;100
17950;BME280;9100;48.700;9.316;2023-04-08T01:49:15;97983.1;;;9.67;100
17950;BME280;9100;48.700;9.316;2023-04-08T01:50:15;97983.8;;;9.68;100
17950;BME280;9100;48.700;9.316;2023-04-08T01:51:15;97983.1;;;9.67;100
17950;BME280;9100;48.700;9.316;2023-04-08T01:52:15;97984.79999999999;;;9.67;100
17950;BME280;9100;48.700;9.316;2023-04-08T01:52:49;97980.7;;;9.66;100
17950;BME280;9100;48.700;9.316;2023-04-08T01:53:14;97977.20000000001;;;9.67;100
17950;BME280;9100;48.700;9.316;2023-04-08T01:54:14;97975.5;;;9.66;100
17950;BME280;9100;48.700;9.316;2023-04-08T01:55:15;97976.2;;;9.68;100
17950;BME280;9100;48.700;9.316;2023-04-08T01:56:15;97981.3;;;9.68;100
17950;BME280;9100;48.700;9.316;2023-04-08T01:57:16;97977.20000000001;;;9.67;100
17950;BME280;9100;48.700;9.316;2023-04-08T01:57:49;97981.5;;;9.66;100
17950;BME280;9100;48.700;9.316;2023-04-08T01:58:16;97980.7;;;9.66;100
17950;BME280;9100;48.700;9.316;2023-04-08T01:59:15;97979.7;;;9.67;100
17950;BME280;9100;48.700;9.316;2023-04-08T02:00:17;97982.9;;;9.69;100
17950;BME280;9100;48.700;9.316;2023-04-08T02:01:16;97979.5;;;9.68;100
17950;BME280;9100;48.700;9.316;2023-04-08T02:02:15;97978;;;9.67;100
17950;BME280;9100;48.700;9.316;2023-04-08T02:02:48;97975.40000000001;;;9.67;100
17950;BME280;9100;48.700;9.316;2023-04-08T02:03:16;97977.20000000001;;;9.67;100
17950;BME280;9100;48.700;9.316;2023-04-08T02:04:15;97978.9;;;9.66;100
17950;BME280;9100;48.700;9.316;2023-04-08T02:05:15;97976.5;;;9.65;100
17950;BME280;9100;48.700;9.316;2023-04-08T02:06:15;97980.8;;;9.64;100
17950;BME280;9100;48.700;9.316;2023-04-08T02:07:14;97976.70000000001;;;9.63;100
17950;BME280;9100;48.700;9.316;2023-04-08T02:07:48;97975.9;;;9.63;100
17950;BME280;9100;48.700;9.316;2023-04-08T02:08:14;97979.2;;;9.63;100
17950;BME280;9100;48.700;9.316;2023-04-08T02:09:14;97979.1;;;9.65;100
17950;BME280;9100;48.700;9.316;2023-04-08T02:10:14;97982.4;;;9.65;100
17950;BME280;9100;48.700;9.316;2023-04-08T02:11:14;97979.9;;;9.65;100
17950;BME280;9100;48.700;9.316;2023-04-08T02:12:14;97979.9;;;9.65;100
17950;BME280;9100;48.700;9.316;2023-04-08T02:12:48;97981.8;;;9.63;100
17950;BME280;9100;48.700;9.316;2023-04-08T02:13:14;97975.7;;;9.64;100
17950;BME280;9100;48.700;9.316;2023-04-08T02:14:14;97984.2;;;9.65;100
17950;BME280;9100;48.700;9.316;2023-04-08T02:15:15;97982.4;;;9.65;100
17950;BME280;9100;48.700;9.316;2023-04-08T02:16:15;97981.5;;;9.66;100
17950;BME280;9100;48.700;9.316;2023-04-08T02:17:16;97989.3;;;9.65;100
17950;BME280;9100;48.700;9.316;2023-04-08T02:17:49;97988.5;;;9.64;100
17950;BME280;9100;48.700;9.316;2023-04-08T02:18:15;97987.5;;;9.65;100
17950;BME280;9100;48.700;9.316;2023-04-08T02:19:17;97973.8;;;9.66;100
17950;BME280;9100;48.700;9.316;2023-04-08T02:20:15;97984;;;9.66;100
17950;BME280;9100;48.700;9.316;2023-04-08T02:21:15;97979.7;;;9.67;100
17950;BME280;9100;48.700;9.316;2023-04-08T02:22:16;97981.5;;;9.66;100
17950;BME280;9100;48.700;9.316;2023-04-08T02:22:49;97982.4;;;9.65;100
17950;BME280;9100;48.700;9.316;2023-04-08T02:23:16;97981.5;;;9.66;100
17950;BME280;9100;48.700;9.316;2023-04-08T02:24:15;97984.79999999999;;;9.67;100
17950;BME280;9100;48.700;9.316;2023-04-08T02:25:15;97982.3;;;9.67;100
17950;BME280;9100;48.700;9.316;2023-04-08T02:26:15;97983.4;;;9.64;100
17950;BME280;9100;48.700;9.316;2023-04-08T02:27:15;97989.3;;;9.65;100
17950;BME280;9100;48.700;9.316;2023-04-08T02:27:49;97988.5;;;9.64;100
17950;BME280;9100;48.700;9.316;2023-04-08T02:28:16;97986.90000000001;;;9.63;100
17950;BME280;9100;48.700;9.316;2023-04-08T02:29:15;97983.5;;;9.63;100
17950;BME280;9100;48.700;9.316;2023-04-08T02:30:15;97981.1;;;9.61;100
17950;BME280;9100;48.700;9.316;2023-04-08T02:31:15;97985.29999999999;;;9.62;100
17950;BME280;9100;48.700;9.316;2023-04-08T02:32:14;97984.5;;;9.62;100
17950;BME280;9100;48.700;9.316;2023-04-08T02:32:48;97978.59999999999;;;9.61;100
17950;BME280;9100;48.700;9.316;2023-04-08T02:33:15;97991.2;;;9.63;100
17950;BME280;9100;48.700;9.316;2023-04-08T02:34:14;97987.2;;;9.6;100
17950;BME280;9100;48.700;9.316;2023-04-08T02:35:14;97982.9;;;9.61;100
17950;BME280;9100;48.700;9.316;2023-04-08T02:36:14;97982.1;;;9.6;100
17950;BME280;9100;48.700;9.316;2023-04-08T02:37:14;97992.3;;;9.6;100
17950;BME280;9100;48.700;9.316;2023-04-08T02:37:48;97991.5;;;9.6;100
17950;BME280;9100;48.700;9.316;2023-04-08T02:38:14;97988.2;;;9.59;100
17950;BME280;9100;48.700;9.316;2023-04-08T02:39:14;97982.1;;;9.6;100
17950;BME280;9100;48.700;9.316;2023-04-08T02:40:22;97987.2;;;9.6;100
17950;BME280;9100;48.700;9.316;2023-04-08T02:41:14;97982.9;;;9.61;100
17950;BME280;9100;48.700;9.316;2023-04-08T02:42:14;97992.3;;;9.6;100
17950;BME280;9100;48.700;9.316;2023-04-08T02:42:48;97994.2;;;9.58;100
17950;BME280;9100;48.700;9.316;2023-04-08T02:43:14;97986.40000000001;;;9.6;100
17950;BME280;9100;48.700;9.316;2023-04-08T02:44:14;97987.40000000001;;;9.59;100
17950;BME280;9100;48.700;9.316;2023-04-08T02:45:14;97949.7;;;9.3;100
17950;BME280;9100;48.700;9.316;2023-04-08T02:46:15;97994.4;;;9.57;100
17950;BME280;9100;48.700;9.316;2023-04-08T02:47:15;97990.4;;;9.54;100
17950;BME280;9100;48.700;9.316;2023-04-08T02:47:48;97987.09999999999;;;9.54;100
17950;BME280;9100;48.700;9.316;2023-04-08T02:48:15;97995.5;;;9.54;100
17950;BME280;9100;48.700;9.316;2023-04-08T02:49:15;97994.7;;;9.54;100
17950;BME280;9100;48.700;9.316;2023-04-08T02:50:15;97992.4;;;9.52;100
17950;BME280;9100;48.700;9.316;2023-04-08T02:51:15;97991.4;;;9.53;100
17950;BME280;9100;48.700;9.316;2023-04-08T02:52:14;97999.2;;;9.52;100
17950;BME280;9100;48.700;9.316;2023-04-08T02:52:48;97991.7;;;9.5;100
17950;BME280;9100;48.700;9.316;2023-04-08T02:53:15;97989;;;9.52;100
17950;BME280;9100;48.700;9.316;2023-04-08T02:54:15;97998.40000000001;;;9.51;100
17950;BME280;9100;48.700;9.316;2023-04-08T02:55:15;97995.9;;;9.51;100
17950;BME280;9100;48.700;9.316;2023-04-08T02:56:15;97990;;;9.51;100
17950;BME280;9100;48.700;9.316;2023-04-08T02:57:15;97997.79999999999;;;9.49;100
17950;BME280;9100;48.700;9.316;2023-04-08T02:57:48;97991.09999999999;;;9.48;100
17950;BME280;9100;48.700;9.316;2023-04-08T02:58:15;97998.7;;;9.48;100
17950;BME280;9100;48.700;9.316;2023-04-08T02:59:15;97989.5;;;9.47;100
17950;BME280;9100;48.700;9.316;2023-04-08T03:00:15;97996.2;;;9.48;100
17950;BME280;9100;48.700;9.316;2023-04-08T03:01:15;97991.2;;;9.47;100
17950;BME280;9100;48.700;9.316;2023-04-08T03:02:15;97986.90000000001;;;9.47;100
17950;BME280;9100;48.700;9.316;2023-04-08T03:02:48;97992;;;9.47;100
17950;BME280;9100;48.700;9.316;2023-04-08T03:03:15;97993.6;;;9.48;100
17950;BME280;9100;48.700;9.316;2023-04-08T03:04:15;97990.09999999999;;;9.49;100
17950;BME280;9100;48.700;9.316;2023-04-08T03:05:15;97993.6;;;9.48;100
17950;BME280;9100;48.700;9.316;2023-04-08T03:06:15;97990.3;;;9.48;100
17950;BME280;9100;48.700;9.316;2023-04-08T03:07:15;97997.1;;;9.47;100
17950;BME280;9100;48.700;9.316;2023-04-08T03:07:48;97997.1;;;9.47;100
17950;BME280;9100;48.700;9.316;2023-04-08T03:08:15;97989.59999999999;;;9.46;100
17950;BME280;9100;48.700;9.316;2023-04-08T03:09:15;97994;;;9.45;100
17950;BME280;9100;48.700;9.316;2023-04-08T03:10:15;97994;;;9.45;100
17950;BME280;9100;48.700;9.316;2023-04-08T03:11:15;97995.7;;;9.45;100
17950;BME280;9100;48.700;9.316;2023-04-08T03:12:15;97995.9;;;9.43;100
17950;BME280;9100;48.700;9.316;2023-04-08T03:12:48;97988.2;;;9.43;100
17950;BME280;9100;48.700;9.316;2023-04-08T03:13:15;97997.5;;;9.44;100
17950;BME280;9100;48.700;9.316;2023-04-08T03:14:15;97999.1;;;9.45;100
17950;BME280;9100;48.700;9.316;2023-04-08T03:15:15;97997.5;;;9.44;100
17950;BME280;9100;48.700;9.316;2023-04-08T03:16:15;97994.9;;;9.44;100
17950;BME280;9100;48.700;9.316;2023-04-08T03:17:15;97994;;;9.45;100
17950;BME280;9100;48.700;9.316;2023-04-08T03:17:48;97988.09999999999;;;9.45;100
17950;BME280;9100;48.700;9.316;2023-04-08T03:18:15;97997.5;;;9.44;100
17950;BME280;9100;48.700;9.316;2023-04-08T03:19:15;97994;;;9.45;100
17950;BME280;9100;48.700;9.316;2023-04-08T03:20:15;97992.4;;;9.44;100
17950;BME280;9100;48.700;9.316;2023-04-08T03:21:15;97994.1;;;9.44;100
17950;BME280;9100;48.700;9.316;2023-04-08T03:22:15;97989.20000000001;;;9.42;100
17950;BME280;9100;48.700;9.316;2023-04-08T03:22:48;97995.1;;;9.43;100
17950;BME280;9100;48.700;9.316;2023-04-08T03:23:15;97995.1;;;9.43;100
17950;BME280;9100;48.700;9.316;2023-04-08T03:24:15;97994.1;;;9.44;100
17950;BME280;9100;48.700;9.316;2023-04-08T03:25:15;97994;;;9.45;100
17950;BME280;9100;48.700;9.316;2023-04-08T03:26:15;97993.2;;;9.45;100
17950;BME280;9100;48.700;9.316;2023-04-08T03:27:15;97994.3;;;9.42;100
17950;BME280;9100;48.700;9.316;2023-04-08T03:27:48;97992.7;;;9.41;100
17950;BME280;9100;48.700;9.316;2023-04-08T03:28:15;97999.40000000001;;;9.42;100
17950;BME280;9100;48.700;9.316;2023-04-08T03:29:15;97997.79999999999;;;9.41;100
17950;BME280;9100;48.700;9.316;2023-04-08T03:30:15;98000.40000000001;;;9.41;100
17950;BME280;9100;48.700;9.316;2023-04-08T03:31:15;97995.4;;;9.4;100
17950;BME280;9100;48.700;9.316;2023-04-08T03:32:15;97999.7;;;9.39;100
17950;BME280;9100;48.700;9.316;2023-04-08T03:32:48;97995.5;;;9.38;100
17950;BME280;9100;48.700;9.316;2023-04-08T03:33:15;97995.4;;;9.4;100
17950;BME280;9100;48.700;9.316;2023-04-08T03:34:15;98000.5;;;9.4;100
17950;BME280;9100;48.700;9.316;2023-04-08T03:35:15;98002.3;;;9.39;100
17950;BME280;9100;48.700;9.316;2023-04-08T03:36:15;97998.90000000001;;;9.39;100
17950;BME280;9100;48.700;9.316;2023-04-08T03:37:14;98001.59999999999;;;9.37;100
17950;BME280;9100;48.700;9.316;2023-04-08T03:37:48;98004.2;;;9.37;100
17950;BME280;9100;48.700;9.316;2023-04-08T03:38:15;98005.8;;;9.38;100
17950;BME280;9100;48.700;9.316;2023-04-08T03:39:14;98004.2;;;9.37;100
17950;BME280;9100;48.700;9.316;2023-04-08T03:40:15;98003.2;;;9.38;100
17950;BME280;9100;48.700;9.316;2023-04-08T03:41:15;98000;;;9.36;100
17950;BME280;9100;48.700;9.316;2023-04-08T03:42:15;98004.2;;;9.37;100
17950;BME280;9100;48.700;9.316;2023-04-08T03:42:48;98008.5;;;9.37;100
17950;BME280;9100;48.700;9.316;2023-04-08T03:43:15;98011.8;;;9.37;100
17950;BME280;9100;48.700;9.316;2023-04-08T03:44:15;98008.3;;;9.38;100
17950;BME280;9100;48.700;9.316;2023-04-08T03:45:15;98001.3;;;9.4;100
17950;BME280;9100;48.700;9.316;2023-04-08T03:46:15;98006.4;;;9.4;100
17950;BME280;9100;48.700;9.316;2023-04-08T03:47:15;98002.9;;;9.41;100
17950;BME280;9100;48.700;9.316;2023-04-08T03:47:48;98001.3;;;9.4;100
17950;BME280;9100;48.700;9.316;2023-04-08T03:48:15;98003.9;;;9.4;100
17950;BME280;9100;48.700;9.316;2023-04-08T03:49:15;98002.09999999999;;;9.41;100
17950;BME280;9100;48.700;9.316;2023-04-08T03:50:15;98004.5;;;9.42;100
17950;BME280;9100;48.700;9.316;2023-04-08T03:51:15;98006.1;;;9.43;100
17950;BME280;9100;48.700;9.316;2023-04-08T03:52:15;98001;;;9.43;100
17950;BME280;9100;48.700;9.316;2023-04-08T03:52:48;97998.6;;;9.42;100
17950;BME280;9100;48.700;9.316;2023-04-08T03:53:15;98000.2;;;9.43;100
17950;BME280;9100;48.700;9.316;2023-04-08T03:54:15;97999.40000000001;;;9.42;100
17950;BME280;9100;48.700;9.316;2023-04-08T03:55:15;97996.8;;;9.42;100
17950;BME280;9100;48.700;9.316;2023-04-08T03:56:15;97999.40000000001;;;9.42;100
17950;BME280;9100;48.700;9.316;2023-04-08T03:57:15;97997.79999999999;;;9.41;100
17950;BME280;9100;48.700;9.316;2023-04-08T03:57:48;97995.3;;;9.41;100
17950;BME280;9100;48.700;9.316;2023-04-08T03:58:15;98000.40000000001;;;9.41;100
17950;BME280;9100;48.700;9.316;2023-04-08T03:59:15;97992.7;;;9.41;100
17950;BME280;9100;48.700;9.316;2023-04-08T04:00:15;97986.8;;;9.41;100
17950;BME280;9100;48.700;9.316;2023-04-08T04:01:15;97997;;;9.41;100
17950;BME280;9100;48.700;9.316;2023-04-08T04:02:15;97994.6;;;9.39;100
17950;BME280;9100;48.700;9.316;2023-04-08T04:02:48;98003.2;;;9.38;100
17950;BME280;9100;48.700;9.316;2023-04-08T04:03:15;97998.1;;;9.38;100
17950;BME280;9100;48.700;9.316;2023-04-08T04:04:14;97998.1;;;9.38;100
17950;BME280;9100;48.700;9.316;2023-04-08T04:05:15;97997.29999999999;;;9.38;100
17950;BME280;9100;48.700;9.316;2023-04-08T04:06:15;97999.1;;;9.37;100
17950;BME280;9100;48.700;9.316;2023-04-08T04:07:14;97993.2;;;9.37;100
17950;BME280;9100;48.700;9.316;2023-04-08T04:07:48;97997.5;;;9.36;100
17950;BME280;9100;48.700;9.316;2023-04-08T04:08:15;97996.5;;;9.37;100
17950;BME280;9100;48.700;9.316;2023-04-08T04:09:15;97992.4;;;9.36;100
17950;BME280;9100;48.700;9.316;2023-04-08T04:10:15;97998.29999999999;;;9.37;100
17950;BME280;9100;48.700;9.316;2023-04-08T04:11:15;97997.5;;;9.36;100
17950;BME280;9100;48.700;9.316;2023-04-08T04:12:15;98000;;;9.36;100
17950;BME280;9100;48.700;9.316;2023-04-08T04:12:48;97992.5;;;9.35;100
17950;BME280;9100;48.700;9.316;2023-04-08T04:13:15;97999.2;;;9.36;100
17950;BME280;9100;48.700;9.316;2023-04-08T04:14:15;98000.8;;;9.37;100
17950;BME280;9100;48.700;9.316;2023-04-08T04:15:15;97996.7;;;9.36;100
17950;BME280;9100;48.700;9.316;2023-04-08T04:16:15;97994.9;;;9.36;100
17950;BME280;9100;48.700;9.316;2023-04-08T04:17:15;97995.9;;;9.35;100
17950;BME280;9100;48.700;9.316;2023-04-08T04:17:49;97993.3;;;9.35;100
17950;BME280;9100;48.700;9.316;2023-04-08T04:18:15;98000.8;;;9.37;100
17950;BME280;9100;48.700;9.316;2023-04-08T04:19:15;98001.59999999999;;;9.37;100
17950;BME280;9100;48.700;9.316;2023-04-08T04:20:15;97996.5;;;9.37;100
17950;BME280;9100;48.700;9.316;2023-04-08T04:21:15;97998.40000000001;;;9.35;100
17950;BME280;9100;48.700;9.316;2023-04-08T04:22:15;97991.8;;;9.34;100
17950;BME280;9100;48.700;9.316;2023-04-08T04:22:49;97996.2;;;9.32;100
17950;BME280;9100;48.700;9.316;2023-04-08T04:23:15;97990.20000000001;;;9.33;100
17950;BME280;9100;48.700;9.316;2023-04-08T04:24:15;97996.1;;;9.34;100
17950;BME280;9100;48.700;9.316;2023-04-08T04:25:15;97995.3;;;9.33;100
17950;BME280;9100;48.700;9.316;2023-04-08T04:26:15;97998.40000000001;;;9.35;100
17950;BME280;9100;48.700;9.316;2023-04-08T04:27:15;98002.70000000001;;;9.35;100
17950;BME280;9100;48.700;9.316;2023-04-08T04:27:49;97997.79999999999;;;9.33;100
17950;BME280;9100;48.700;9.316;2023-04-08T04:28:15;97997;;;9.33;100
17950;BME280;9100;48.700;9.316;2023-04-08T04:29:15;98001.2;;;9.34;100
17950;BME280;9100;48.700;9.316;2023-04-08T04:30:15;98009;;;9.32;100
17950;BME280;9100;48.700;9.316;2023-04-08T04:31:18;98002.3;;;9.31;100
17950;BME280;9100;48.700;9.316;2023-04-08T04:32:15;98009.1;;;9.31;100
17950;BME280;9100;48.700;9.316;2023-04-08T04:32:48;98005.1;;;9.28;100
17950;BME280;9100;48.700;9.316;2023-04-08T04:33:15;98005.8;;;9.3;100
17950;BME280;9100;48.700;9.316;2023-04-08T04:34:15;98005.8;;;9.3;100
17950;BME280;9100;48.700;9.316;2023-04-08T04:35:15;98004.2;;;9.29;100
17950;BME280;9100;48.700;9.316;2023-04-08T04:36:15;98008.6;;;9.27;100
17950;BME280;9100;48.700;9.316;2023-04-08T04:37:15;97975.5;;;9.03;100